sensor_id;sensor_type;location;lat;lon;timestamp;pressure;altitude;pressure_sealevel;temperature;humidity
73240;BME280;61452;40.054;4.110;2024-03-29T00:02:40;100783.22;;;17.85;100.00
73240;BME280;61452;40.054;4.110;2024-03-29T00:07:41;100787.81;;;17.83;100.00
73240;BME280;61452;40.054;4.110;2024-03-29T00:12:43;100785.88;;;17.85;100.00
73240;BME280;61452;40.054;4.110;2024-03-29T00:17:44;100787.81;;;17.83;100.00
73240;BME280;61452;40.054;4.110;2024-03-29T00:22:45;100780.81;;;17.82;100.00
73240;BME280;61452;40.054;4.110;2024-03-29T00:27:46;100781.53;;;17.84;100.00
73240;BME280;61452;40.054;4.110;2024-03-29T00:32:49;100774.78;;;17.80;100.00
73240;BME280;61452;40.054;4.110;2024-03-29T00:37:50;100771.06;;;17.83;100.00
73240;BME280;61452;40.054;4.110;2024-03-29T00:42:51;100770.22;;;17.82;100.00
73240;BME280;61452;40.054;4.110;2024-03-29T00:47:52;100747.28;;;17.81;100.00
73240;BME280;61452;40.054;4.110;2024-03-29T00:52:53;100743.78;;;17.81;100.00
73240;BME280;61452;40.054;4.110;2024-03-29T00:57:54;100737.63;;;17.80;100.00
73240;BME280;61452;40.054;4.110;2024-03-29T01:02:55;100735.94;;;17.79;100.00
73240;BME280;61452;40.054;4.110;2024-03-29T01:07:58;100742.94;;;17.80;100.00
73240;BME280;61452;40.054;4.110;2024-03-29T01:12:59;100736.78;;;17.79;100.00
73240;BME280;61452;40.054;4.110;2024-03-29T01:18:00;100740.41;;;17.78;100.00
73240;BME280;61452;40.054;4.110;2024-03-29T01:23:02;100736.78;;;17.79;100.00
73240;BME280;61452;40.054;4.110;2024-03-29T01:28:03;100733.41;;;17.77;100.00
73240;BME280;61452;40.054;4.110;2024-03-29T01:33:05;100721.97;;;17.77;100.00
73240;BME280;61452;40.054;4.110;2024-03-29T01:38:06;100723.63;;;17.78;100.00
73240;BME280;61452;40.054;4.110;2024-03-29T01:43:07;100707.88;;;17.76;100.00
73240;BME280;61452;40.054;4.110;2024-03-29T01:48:12;100709.53;;;17.77;100.00
73240;BME280;61452;40.054;4.110;2024-03-29T01:53:14;100699.75;;;17.78;100.00
73240;BME280;61452;40.054;4.110;2024-03-29T01:58:15;100697.09;;;17.78;100.00
73240;BME280;61452;40.054;4.110;2024-03-29T02:03:17;100688.31;;;17.77;100.00
73240;BME280;61452;40.054;4.110;2024-03-29T02:08:18;100688.31;;;17.77;100.00
73240;BME280;61452;40.054;4.110;2024-03-29T02:13:19;100678.69;;;17.76;100.00
73240;BME280;61452;40.054;4.110;2024-03-29T02:18:20;100669.88;;;17.76;100.00
73240;BME280;61452;40.054;4.110;2024-03-29T02:23:29;100667.34;;;17.74;100.00
73240;BME280;61452;40.054;4.110;2024-03-29T02:28:31;100674.34;;;17.75;100.00
73240;BME280;61452;40.054;4.110;2024-03-29T02:33:32;100665.66;;;17.73;100.00
73240;BME280;61452;40.054;4.110;2024-03-29T02:38:33;100662.16;;;17.73;100.00
73240;BME280;61452;40.054;4.110;2024-03-29T02:43:34;100654.06;;;17.74;100.00
73240;BME280;61452;40.054;4.110;2024-03-29T02:48:35;100639.13;;;17.73;100.00
73240;BME280;61452;40.054;4.110;2024-03-29T02:53:36;100636.47;;;17.73;100.00
73240;BME280;61452;40.054;4.110;2024-03-29T02:58:38;100624.16;;;17.72;100.00
73240;BME280;61452;40.054;4.110;2024-03-29T03:03:40;100621.50;;;17.72;100.00
73240;BME280;61452;40.054;4.110;2024-03-29T03:08:41;100620.66;;;17.72;100.00
73240;BME280;61452;40.054;4.110;2024-03-29T03:14:01;100611.75;;;17.73;100.00
73240;BME280;61452;40.054;4.110;2024-03-29T03:19:02;100597.63;;;17.72;100.00
73240;BME280;61452;40.054;4.110;2024-03-29T03:24:03;100596.69;;;17.73;100.00
73240;BME280;61452;40.054;4.110;2024-03-29T03:29:05;100586.19;;;17.72;100.00
73240;BME280;61452;40.054;4.110;2024-03-29T03:34:08;100585.34;;;17.71;100.00
73240;BME280;61452;40.054;4.110;2024-03-29T03:39:10;100574.03;;;17.69;100.00
73240;BME280;61452;40.054;4.110;2024-03-29T03:44:11;100569.41;;;17.71;100.00
73240;BME280;61452;40.054;4.110;2024-03-29T03:49:12;100562.47;;;17.70;100.00
73240;BME280;61452;40.054;4.110;2024-03-29T03:54:13;100569.56;;;17.70;100.00
73240;BME280;61452;40.054;4.110;2024-03-29T03:59:15;100560.75;;;17.69;100.00
73240;BME280;61452;40.054;4.110;2024-03-29T04:04:16;100557.16;;;17.70;100.00
73240;BME280;61452;40.054;4.110;2024-03-29T04:09:17;100551.00;;;17.70;100.00
73240;BME280;61452;40.054;4.110;2024-03-29T04:14:18;100557.28;;;17.69;100.00
73240;BME280;61452;40.054;4.110;2024-03-29T04:19:19;100553.66;;;17.70;100.00
73240;BME280;61452;40.054;4.110;2024-03-29T04:24:20;100551.97;;;17.69;100.00
73240;BME280;61452;40.054;4.110;2024-03-29T04:29:22;100552.06;;;17.67;100.00
73240;BME280;61452;40.054;4.110;2024-03-29T04:34:23;100552.94;;;17.68;100.00
73240;BME280;61452;40.054;4.110;2024-03-29T04:39:24;100554.50;;;17.70;100.00
73240;BME280;61452;40.054;4.110;2024-03-29T04:44:27;100559.91;;;17.69;100.00
73240;BME280;61452;40.054;4.110;2024-03-29T04:49:28;100553.66;;;17.70;100.00
73240;BME280;61452;40.054;4.110;2024-03-29T04:54:37;100551.97;;;17.69;100.00
73240;BME280;61452;40.054;4.110;2024-03-29T04:59:39;100551.13;;;17.68;100.00
73240;BME280;61452;40.054;4.110;2024-03-29T05:04:40;100552.06;;;17.67;100.00
73240;BME280;61452;40.054;4.110;2024-03-29T05:09:42;100549.44;;;17.67;100.00
73240;BME280;61452;40.054;4.110;2024-03-29T05:14:45;100550.28;;;17.68;100.00
73240;BME280;61452;40.054;4.110;2024-03-29T05:19:46;100550.28;;;17.68;100.00
73240;BME280;61452;40.054;4.110;2024-03-29T05:24:49;100544.25;;;17.66;100.00
73240;BME280;61452;40.054;4.110;2024-03-29T05:29:50;100544.97;;;17.68;100.00
73240;BME280;61452;40.054;4.110;2024-03-29T05:34:52;100539.78;;;17.66;100.00
73240;BME280;61452;40.054;4.110;2024-03-29T05:39:53;100551.13;;;17.68;100.00
73240;BME280;61452;40.054;4.110;2024-03-29T05:45:01;100549.31;;;17.69;100.00
73240;BME280;61452;40.054;4.110;2024-03-29T05:50:02;100533.06;;;17.62;100.00
73240;BME280;61452;40.054;4.110;2024-03-29T05:55:04;100544.97;;;17.68;100.00
73240;BME280;61452;40.054;4.110;2024-03-29T06:00:08;100540.06;;;17.63;100.00
73240;BME280;61452;40.054;4.110;2024-03-29T06:05:12;100538.94;;;17.66;100.00
73240;BME280;61452;40.054;4.110;2024-03-29T06:10:13;100540.75;;;17.65;100.00
73240;BME280;61452;40.054;4.110;2024-03-29T06:15:15;100536.28;;;17.66;100.00
73240;BME280;61452;40.054;4.110;2024-03-29T06:20:35;100535.44;;;17.65;100.00
73240;BME280;61452;40.054;4.110;2024-03-29T06:25:36;100532.78;;;17.65;100.00
73240;BME280;61452;40.054;4.110;2024-03-29T06:30:37;100532.09;;;17.63;100.00
73240;BME280;61452;40.054;4.110;2024-03-29T06:35:38;100529.44;;;17.63;100.00
73240;BME280;61452;40.054;4.110;2024-03-29T06:40:39;100523.50;;;17.60;100.00
73240;BME280;61452;40.054;4.110;2024-03-29T06:45:41;100528.47;;;17.64;100.00
73240;BME280;61452;40.054;4.110;2024-03-29T06:50:45;100531.25;;;17.63;100.00
73240;BME280;61452;40.054;4.110;2024-03-29T06:55:48;100526.78;;;17.63;100.00
73240;BME280;61452;40.054;4.110;2024-03-29T07:00:50;100512.19;;;17.58;100.00
73240;BME280;61452;40.054;4.110;2024-03-29T07:05:51;100542.59;;;17.65;100.00
73240;BME280;61452;40.054;4.110;2024-03-29T07:11:02;100541.84;;;17.63;100.00
73240;BME280;61452;40.054;4.110;2024-03-29T07:16:04;100553.31;;;17.63;100.00
73240;BME280;61452;40.054;4.110;2024-03-29T07:21:05;100554.16;;;17.64;100.00
73240;BME280;61452;40.054;4.110;2024-03-29T07:26:06;100555.97;;;17.63;100.00
73240;BME280;61452;40.054;4.110;2024-03-29T07:31:07;100544.38;;;17.64;100.00
73240;BME280;61452;40.054;4.110;2024-03-29T07:36:09;100544.50;;;17.63;100.00
73240;BME280;61452;40.054;4.110;2024-03-29T07:41:11;100542.69;;;17.63;100.00
73240;BME280;61452;40.054;4.110;2024-03-29T07:46:14;100535.59;;;17.64;100.00
73240;BME280;61452;40.054;4.110;2024-03-29T07:51:15;100532.09;;;17.63;100.00
73240;BME280;61452;40.054;4.110;2024-03-29T07:56:16;100526.78;;;17.63;100.00
73240;BME280;61452;40.054;4.110;2024-03-29T08:01:19;100530.41;;;17.62;100.00
73240;BME280;61452;40.054;4.110;2024-03-29T08:06:21;100525.94;;;17.63;100.00
73240;BME280;61452;40.054;4.110;2024-03-29T08:11:24;100529.44;;;17.63;100.00
73240;BME280;61452;40.054;4.110;2024-03-29T08:16:25;100527.63;;;17.64;100.00
73240;BME280;61452;40.054;4.110;2024-03-29T08:21:26;100533.91;;;17.63;100.00
73240;BME280;61452;40.054;4.110;2024-03-29T08:26:28;100521.47;;;17.63;100.00
73240;BME280;61452;40.054;4.110;2024-03-29T08:31:32;100523.28;;;17.63;100.00
73240;BME280;61452;40.054;4.110;2024-03-29T08:36:33;100513.53;;;17.63;100.00
73240;BME280;61452;40.054;4.110;2024-03-29T08:41:34;100518.09;;;17.61;100.00
73240;BME280;61452;40.054;4.110;2024-03-29T08:46:36;100523.28;;;17.63;100.00
73240;BME280;61452;40.054;4.110;2024-03-29T08:51:37;100514.47;;;17.62;100.00
73240;BME280;61452;40.054;4.110;2024-03-29T08:56:38;100512.69;;;17.63;100.00
73240;BME280;61452;40.054;4.110;2024-03-29T09:01:44;100517.97;;;17.63;100.00
73240;BME280;61452;40.054;4.110;2024-03-29T09:06:45;100517.88;;;17.64;100.00
73240;BME280;61452;40.054;4.110;2024-03-29T09:11:46;100513.53;;;17.63;100.00
73240;BME280;61452;40.054;4.110;2024-03-29T09:16:48;100517.88;;;17.64;100.00
73240;BME280;61452;40.054;4.110;2024-03-29T09:21:49;100517.13;;;17.62;100.00
73240;BME280;61452;40.054;4.110;2024-03-29T09:26:50;100513.75;;;17.60;100.00
73240;BME280;61452;40.054;4.110;2024-03-29T09:31:51;100539.19;;;17.63;100.00
73240;BME280;61452;40.054;4.110;2024-03-29T09:36:52;100540.88;;;17.64;100.00
73240;BME280;61452;40.054;4.110;2024-03-29T09:41:55;100519.78;;;17.62;100.00
73240;BME280;61452;40.054;4.110;2024-03-29T09:47:03;100527.69;;;17.73;100.00
73240;BME280;61452;40.054;4.110;2024-03-29T09:52:04;100528.72;;;17.61;100.00
73240;BME280;61452;40.054;4.110;2024-03-29T09:57:07;100535.31;;;17.67;100.00
73240;BME280;61452;40.054;4.110;2024-03-29T10:02:14;100538.09;;;17.65;100.00
73240;BME280;61452;40.054;4.110;2024-03-29T10:07:17;100522.91;;;17.67;100.00
73240;BME280;61452;40.054;4.110;2024-03-29T10:12:19;100509.63;;;17.67;100.00
73240;BME280;61452;40.054;4.110;2024-03-29T10:17:21;100498.19;;;17.67;100.00
73240;BME280;61452;40.054;4.110;2024-03-29T10:22:22;100495.41;;;17.68;100.00
73240;BME280;61452;40.054;4.110;2024-03-29T10:27:26;100490.69;;;17.72;100.00
73240;BME280;61452;40.054;4.110;2024-03-29T10:32:27;100496.84;;;17.72;100.00
73240;BME280;61452;40.054;4.110;2024-03-29T10:37:28;100480.91;;;17.72;100.00
73240;BME280;61452;40.054;4.110;2024-03-29T10:42:33;100468.50;;;17.73;100.00
73240;BME280;61452;40.054;4.110;2024-03-29T10:47:38;100456.19;;;17.72;100.00
73240;BME280;61452;40.054;4.110;2024-03-29T10:52:42;100436.66;;;17.73;100.00
73240;BME280;61452;40.054;4.110;2024-03-29T10:57:45;100424.13;;;17.75;100.00
73240;BME280;61452;40.054;4.110;2024-03-29T11:07:57;100397.97;;;17.91;100.00
73240;BME280;61452;40.054;4.110;2024-03-29T11:18:22;100405.22;;;17.89;100.00
73240;BME280;61452;40.054;4.110;2024-03-29T11:23:27;100399.31;;;17.86;100.00
73240;BME280;61452;40.054;4.110;2024-03-29T11:28:34;100401.97;;;17.86;100.00
73240;BME280;61452;40.054;4.110;2024-03-29T11:38:46;100374.53;;;17.96;100.00
73240;BME280;61452;40.054;4.110;2024-03-29T11:43:47;100370.22;;;17.95;100.00
73240;BME280;61452;40.054;4.110;2024-03-29T11:48:48;100364.91;;;17.95;100.00
73240;BME280;61452;40.054;4.110;2024-03-29T11:53:53;100342.00;;;17.94;100.00
73240;BME280;61452;40.054;4.110;2024-03-29T11:58:55;100338.50;;;17.94;100.00
73240;BME280;61452;40.054;4.110;2024-03-29T12:04:00;100341.16;;;17.94;100.00
73240;BME280;61452;40.054;4.110;2024-03-29T12:09:02;100330.66;;;17.92;100.00
73240;BME280;61452;40.054;4.110;2024-03-29T12:14:03;100339.47;;;17.93;100.00
73240;BME280;61452;40.054;4.110;2024-03-29T12:19:22;100301.22;;;17.95;100.00
73240;BME280;61452;40.054;4.110;2024-03-29T12:24:24;100311.69;;;17.97;100.00
73240;BME280;61452;40.054;4.110;2024-03-29T12:29:26;100298.16;;;18.00;100.00
73240;BME280;61452;40.054;4.110;2024-03-29T12:34:27;100296.47;;;17.99;100.00
73240;BME280;61452;40.054;4.110;2024-03-29T12:39:32;100286.81;;;17.98;100.00
73240;BME280;61452;40.054;4.110;2024-03-29T12:44:35;100268.97;;;18.00;100.00
73240;BME280;61452;40.054;4.110;2024-03-29T12:49:40;100279.44;;;18.01;100.00
73240;BME280;61452;40.054;4.110;2024-03-29T12:54:41;100258.06;;;18.03;100.00
73240;BME280;61452;40.054;4.110;2024-03-29T12:59:42;100264.94;;;18.05;100.00
73240;BME280;61452;40.054;4.110;2024-03-29T13:04:45;100249.13;;;18.04;100.00
73240;BME280;61452;40.054;4.110;2024-03-29T13:09:47;100245.63;;;18.03;100.00
73240;BME280;61452;40.054;4.110;2024-03-29T13:14:48;100236.44;;;18.07;100.00
73240;BME280;61452;40.054;4.110;2024-03-29T13:19:49;100257.69;;;18.07;100.00
73240;BME280;61452;40.054;4.110;2024-03-29T13:24:50;100248.16;;;18.05;100.00
73240;BME280;61452;40.054;4.110;2024-03-29T13:29:53;100248.28;;;18.03;100.00
73240;BME280;61452;40.054;4.110;2024-03-29T13:34:54;100236.44;;;18.07;100.00
73240;BME280;61452;40.054;4.110;2024-03-29T13:39:56;100241.75;;;18.07;100.00
73240;BME280;61452;40.054;4.110;2024-03-29T13:44:57;100225.59;;;18.30;100.00
73240;BME280;61452;40.054;4.110;2024-03-29T13:49:58;100214.69;;;18.52;100.00
73240;BME280;61452;40.054;4.110;2024-03-29T13:55:00;100214.00;;;18.40;100.00
73240;BME280;61452;40.054;4.110;2024-03-29T14:00:01;100201.19;;;18.55;100.00
73240;BME280;61452;40.054;4.110;2024-03-29T14:05:06;100204.78;;;18.44;100.00
73240;BME280;61452;40.054;4.110;2024-03-29T14:10:09;100199.03;;;18.39;100.00
73240;BME280;61452;40.054;4.110;2024-03-29T14:15:10;100187.59;;;18.39;100.00
73240;BME280;61452;40.054;4.110;2024-03-29T14:20:11;100179.34;;;18.42;100.00
73240;BME280;61452;40.054;4.110;2024-03-29T14:25:12;100160.03;;;18.40;100.00
73240;BME280;61452;40.054;4.110;2024-03-29T14:30:13;100152.91;;;18.40;100.00
73240;BME280;61452;40.054;4.110;2024-03-29T14:35:15;100146.94;;;18.38;100.00
73240;BME280;61452;40.054;4.110;2024-03-29T14:40:17;100141.63;;;18.38;100.00
73240;BME280;61452;40.054;4.110;2024-03-29T14:45:19;100134.88;;;18.34;100.00
73240;BME280;61452;40.054;4.110;2024-03-29T14:50:20;100122.59;;;18.33;100.00
73240;BME280;61452;40.054;4.110;2024-03-29T14:55:21;100124.13;;;18.36;100.00
73240;BME280;61452;40.054;4.110;2024-03-29T15:00:23;100106.66;;;18.33;100.00
73240;BME280;61452;40.054;4.110;2024-03-29T15:05:25;100104.00;;;18.33;100.00
73240;BME280;61452;40.054;4.110;2024-03-29T15:10:27;100093.25;;;18.35;100.00
73240;BME280;61452;40.054;4.110;2024-03-29T15:15:28;100077.44;;;18.33;100.00
73240;BME280;61452;40.054;4.110;2024-03-29T15:20:31;100066.03;;;18.33;100.00
73240;BME280;61452;40.054;4.110;2024-03-29T15:25:34;100072.13;;;18.33;100.00
73240;BME280;61452;40.054;4.110;2024-03-29T15:30:36;100065.19;;;18.32;100.00
73240;BME280;61452;40.054;4.110;2024-03-29T15:35:42;100059.16;;;18.30;100.00
73240;BME280;61452;40.054;4.110;2024-03-29T15:40:43;100047.56;;;18.31;100.00
73240;BME280;61452;40.054;4.110;2024-03-29T15:45:44;100043.38;;;18.29;100.00
73240;BME280;61452;40.054;4.110;2024-03-29T15:50:45;100045.75;;;18.32;100.00
73240;BME280;61452;40.054;4.110;2024-03-29T15:55:47;100042.13;;;18.33;100.00
73240;BME280;61452;40.054;4.110;2024-03-29T16:00:49;100027.16;;;18.32;100.00
73240;BME280;61452;40.054;4.110;2024-03-29T16:05:50;100028.16;;;18.31;100.00
73240;BME280;61452;40.054;4.110;2024-03-29T16:16:01;100019.47;;;18.29;100.00
73240;BME280;61452;40.054;4.110;2024-03-29T16:21:02;100014.03;;;18.30;100.00
73240;BME280;61452;40.054;4.110;2024-03-29T16:26:04;100015.97;;;18.28;100.00
73240;BME280;61452;40.054;4.110;2024-03-29T16:31:05;100012.47;;;18.28;100.00
73240;BME280;61452;40.054;4.110;2024-03-29T16:36:06;99999.91;;;18.30;100.00
73240;BME280;61452;40.054;4.110;2024-03-29T16:41:08;100001.31;;;18.24;100.00
73240;BME280;61452;40.054;4.110;2024-03-29T16:46:09;100000.91;;;18.29;100.00
73240;BME280;61452;40.054;4.110;2024-03-29T16:51:10;100005.22;;;18.30;100.00
73240;BME280;61452;40.054;4.110;2024-03-29T16:56:13;100003.97;;;18.24;100.00
73240;BME280;61452;40.054;4.110;2024-03-29T17:01:14;100013.63;;;18.25;100.00
73240;BME280;61452;40.054;4.110;2024-03-29T17:06:15;100009.16;;;18.26;100.00
73240;BME280;61452;40.054;4.110;2024-03-29T17:11:16;100009.00;;;18.27;100.00
73240;BME280;61452;40.054;4.110;2024-03-29T17:16:17;100008.31;;;18.25;100.00
73240;BME280;61452;40.054;4.110;2024-03-29T17:21:19;100012.34;;;18.29;100.00
73240;BME280;61452;40.054;4.110;2024-03-29T17:26:20;100002.03;;;18.26;100.00
73240;BME280;61452;40.054;4.110;2024-03-29T17:31:21;99993.22;;;18.26;100.00
73240;BME280;61452;40.054;4.110;2024-03-29T17:36:22;99991.13;;;18.29;100.00
73240;BME280;61452;40.054;4.110;2024-03-29T17:41:23;99975.19;;;18.29;100.00
73240;BME280;61452;40.054;4.110;2024-03-29T17:46:24;99970.19;;;18.26;100.00
73240;BME280;61452;40.054;4.110;2024-03-29T17:51:25;99975.50;;;18.26;100.00
73240;BME280;61452;40.054;4.110;2024-03-29T17:56:27;99965.53;;;18.28;100.00
73240;BME280;61452;40.054;4.110;2024-03-29T18:01:28;99953.09;;;18.29;100.00
73240;BME280;61452;40.054;4.110;2024-03-29T18:06:29;99945.00;;;18.30;100.00
73240;BME280;61452;40.054;4.110;2024-03-29T18:11:31;99933.69;;;18.28;100.00
73240;BME280;61452;40.054;4.110;2024-03-29T18:16:33;99941.38;;;18.31;100.00
73240;BME280;61452;40.054;4.110;2024-03-29T18:21:34;99947.78;;;18.29;100.00
73240;BME280;61452;40.054;4.110;2024-03-29T18:26:35;99944.31;;;18.28;100.00
73240;BME280;61452;40.054;4.110;2024-03-29T18:31:36;99933.53;;;18.30;100.00
73240;BME280;61452;40.054;4.110;2024-03-29T18:36:37;99942.34;;;18.30;100.00
73240;BME280;61452;40.054;4.110;2024-03-29T18:41:39;99945.84;;;18.31;100.00
73240;BME280;61452;40.054;4.110;2024-03-29T18:46:40;99934.25;;;18.32;100.00
73240;BME280;61452;40.054;4.110;2024-03-29T18:51:41;99934.53;;;18.29;100.00
73240;BME280;61452;40.054;4.110;2024-03-29T18:56:42;99935.22;;;18.31;100.00
73240;BME280;61452;40.054;4.110;2024-03-29T19:01:43;99932.56;;;18.31;100.00
73240;BME280;61452;40.054;4.110;2024-03-29T19:06:48;99924.75;;;18.29;100.00
73240;BME280;61452;40.054;4.110;2024-03-29T19:11:50;99932.72;;;18.29;100.00
73240;BME280;61452;40.054;4.110;2024-03-29T19:16:53;99932.84;;;18.28;100.00
73240;BME280;61452;40.054;4.110;2024-03-29T19:21:55;99934.53;;;18.29;100.00
73240;BME280;61452;40.054;4.110;2024-03-29T19:26:56;99934.00;;;18.25;100.00
73240;BME280;61452;40.054;4.110;2024-03-29T19:31:58;99941.94;;;18.25;100.00
73240;BME280;61452;40.054;4.110;2024-03-29T19:36:59;99941.13;;;18.25;100.00
73240;BME280;61452;40.054;4.110;2024-03-29T19:42:00;99949.78;;;18.27;100.00
73240;BME280;61452;40.054;4.110;2024-03-29T19:47:01;99955.91;;;18.27;100.00
73240;BME280;61452;40.054;4.110;2024-03-29T19:52:03;99958.28;;;18.30;100.00
73240;BME280;61452;40.054;4.110;2024-03-29T19:57:04;99958.69;;;18.35;100.00
73240;BME280;61452;40.054;4.110;2024-03-29T20:02:05;99960.34;;;18.36;100.00
73240;BME280;61452;40.054;4.110;2024-03-29T20:07:07;99967.09;;;18.31;100.00
73240;BME280;61452;40.054;4.110;2024-03-29T20:12:08;99969.16;;;18.27;100.00
73240;BME280;61452;40.054;4.110;2024-03-29T20:17:09;99977.13;;;18.27;100.00
73240;BME280;61452;40.054;4.110;2024-03-29T20:22:10;99971.69;;;18.29;100.00
73240;BME280;61452;40.054;4.110;2024-03-29T20:27:11;99967.53;;;18.26;100.00
73240;BME280;61452;40.054;4.110;2024-03-29T20:32:12;99957.88;;;18.25;100.00
73240;BME280;61452;40.054;4.110;2024-03-29T20:37:14;99955.81;;;18.19;100.00
73240;BME280;61452;40.054;4.110;2024-03-29T20:42:16;99968.63;;;18.24;100.00
73240;BME280;61452;40.054;4.110;2024-03-29T20:47:17;99995.19;;;18.24;100.00
73240;BME280;61452;40.054;4.110;2024-03-29T20:52:18;100052.75;;;18.23;100.00
73240;BME280;61452;40.054;4.110;2024-03-29T20:57:23;100090.47;;;18.27;100.00
73240;BME280;61452;40.054;4.110;2024-03-29T21:02:25;100102.06;;;18.26;100.00
73240;BME280;61452;40.054;4.110;2024-03-29T21:07:44;100061.53;;;18.24;100.00
73240;BME280;61452;40.054;4.110;2024-03-29T21:12:47;100077.34;;;18.25;100.00
73240;BME280;61452;40.054;4.110;2024-03-29T21:17:49;100102.91;;;18.26;100.00
73240;BME280;61452;40.054;4.110;2024-03-29T21:22:51;100075.53;;;18.26;100.00
73240;BME280;61452;40.054;4.110;2024-03-29T21:27:53;100064.91;;;18.26;100.00
73240;BME280;61452;40.054;4.110;2024-03-29T21:32:55;100050.78;;;18.25;100.00
73240;BME280;61452;40.054;4.110;2024-03-29T21:37:57;100059.59;;;18.26;100.00
73240;BME280;61452;40.054;4.110;2024-03-29T21:42:58;100044.06;;;18.21;100.00
73240;BME280;61452;40.054;4.110;2024-03-29T21:47:59;100059.59;;;18.26;100.00
73240;BME280;61452;40.054;4.110;2024-03-29T21:53:00;100052.47;;;18.26;100.00
73240;BME280;61452;40.054;4.110;2024-03-29T21:58:03;100047.28;;;18.25;100.00
73240;BME280;61452;40.054;4.110;2024-03-29T22:03:05;100043.66;;;18.26;100.00
73240;BME280;61452;40.054;4.110;2024-03-29T22:08:06;100043.81;;;18.24;100.00
73240;BME280;61452;40.054;4.110;2024-03-29T22:13:07;100036.81;;;18.23;100.00
73240;BME280;61452;40.054;4.110;2024-03-29T22:18:08;100021.03;;;18.22;100.00
73240;BME280;61452;40.054;4.110;2024-03-29T22:23:09;100022.84;;;18.31;100.00
73240;BME280;61452;40.054;4.110;2024-03-29T22:28:10;99998.63;;;18.34;100.00
73240;BME280;61452;40.054;4.110;2024-03-29T22:33:12;99977.84;;;18.29;100.00
73240;BME280;61452;40.054;4.110;2024-03-29T22:38:13;99983.16;;;18.29;100.00
73240;BME280;61452;40.054;4.110;2024-03-29T22:43:15;99981.63;;;18.27;100.00
73240;BME280;61452;40.054;4.110;2024-03-29T22:48:16;99959.56;;;18.26;100.00
73240;BME280;61452;40.054;4.110;2024-03-29T22:53:20;99973.81;;;18.25;100.00
73240;BME280;61452;40.054;4.110;2024-03-29T22:58:21;99963.31;;;18.24;100.00
73240;BME280;61452;40.054;4.110;2024-03-29T23:03:22;99951.59;;;18.26;100.00
73240;BME280;61452;40.054;4.110;2024-03-29T23:08:23;99952.56;;;18.25;100.00
73240;BME280;61452;40.054;4.110;2024-03-29T23:13:24;99956.19;;;18.24;100.00
73240;BME280;61452;40.054;4.110;2024-03-29T23:18:26;99946.56;;;18.23;100.00
73240;BME280;61452;40.054;4.110;2024-03-29T23:23:27;99947.41;;;18.24;100.00
73240;BME280;61452;40.054;4.110;2024-03-29T23:28:28;99916.53;;;18.23;100.00
73240;BME280;61452;40.054;4.110;2024-03-29T23:33:29;99903.25;;;18.23;100.00
73240;BME280;61452;40.054;4.110;2024-03-29T23:38:30;99922.66;;;18.23;100.00
73240;BME280;61452;40.054;4.110;2024-03-29T23:43:32;99920.84;;;18.24;100.00
73240;BME280;61452;40.054;4.110;2024-03-29T23:48:33;99935.09;;;18.23;100.00
73240;BME280;61452;40.054;4.110;2024-03-29T23:53:35;99911.91;;;18.25;100.00
73240;BME280;61452;40.054;4.110;2024-03-29T23:58:36;99924.03;;;18.27;100.00
